Portada
METAR-TAF:

METAR-TAF

Aeroports :

Port Vila, Éfaté, Vanuatu

latitud: 17-42S, longitud: 168-18E, altitud: 20 m

Observació

L'informe es va fer fa 3 hores i 29 minuts, a les 15:00 UTC
Vent 1 kt del Oest/Nord-Oest
Temperatura 24°C
Humitat 94%
Pressió 1007 hPa
Visibilitat 10 km o més
Núvols disperses a una alçada de 2000 ft
Cel ennuvolat a una alçada de 4000 ft

METAR: NVVV 291500Z 30001KT 9999 SCT020 BKN040 24/23 Q1007

Hora: 05:29 (18:29 UTC)

Pronòstic

L'informe es va fer fa 2 hores i 29 minuts, a les 16:00 UTC
Pronòstic vàlid del 29 a les 18 UTC al 30 a les 18 UTC
Vent 6 kt del Est
Visibilitat 10 km o més
Núvols disperses a una alçada de 2000 ft
Cel ennuvolat a una alçada de 4000 ft
Probabilitat 40%
entre IN i TE UTC
Visibilitat: 8000 m
Escasses núvols a una alçada de 1000 ft
Cel ennuvolat a una alçada de 1800 ft
Cel cobert a una alçada de 3800 ft
xàfecs de pluja

TAF: NVVV 291600Z 2918/3018 10006KT 9999 SCT020 BKN040 PROB40 INTER 2918/2924 8000 SHRA FEW010 BKN018 OVC038

Observacions i pronòstics meteorològics de més de 4000 aeroports (METAR i TAF).

Les estacions disponibles són els punts grocs i vermells al mapa.

Posi el ratolí al punt desitjat per veure el nom de l'estació.

Feu clic per veure les observacions i els pronòstics meteorològics.

Per canviar el mapa: feu clic els botons verds amb una creu de color negre per apropar; al botó verd amb un guió per allunyar la imatge; o en les fletxes verdes per a mapes adjacents.


METAR-TAF: